Terminal Aerodrome Forecast
Issued by NWS Paducah, KY

Home | Current Version | Previous Version | Text Only | Print | Product List | Glossary Off
Versions: 1 2 3 4 5 6 7 8 9 10 11 12 13 14 15

370
FTUS43 KPAH 120834 AAB
TAFPAH
TAF AMD
KPAH 120834Z 1209/1306 08006KT P6SM OVC050
      TEMPO 1209/1212 -SN BKN040 OVC080
     FM121300 35004KT P6SM SCT040 BKN070
     FM121800 34006KT P6SM OVC022=

USA.gov is the U.S. government's official web portal to all federal, state and local government web resources and services.